createdAt,value
2024-02-27T00:00:56.562Z,100.00
2024-02-27T00:04:11.037Z,100.00
2024-02-27T00:07:25.326Z,100.00
2024-02-27T00:10:38.084Z,100.00
2024-02-27T00:13:50.579Z,100.00
2024-02-27T00:17:03.362Z,100.00
2024-02-27T00:20:15.919Z,100.00
2024-02-27T00:23:28.718Z,100.00
2024-02-27T00:26:41.170Z,100.00
2024-02-27T00:29:55.110Z,100.00
2024-02-27T00:33:07.772Z,100.00
2024-02-27T00:36:20.574Z,100.00
2024-02-27T00:39:33.051Z,100.00
2024-02-27T00:42:45.786Z,100.00
2024-02-27T00:45:58.183Z,100.00
2024-02-27T00:49:11.056Z,100.00
2024-02-27T00:52:23.533Z,100.00
2024-02-27T00:55:36.238Z,100.00
2024-02-27T00:58:48.650Z,100.00
2024-02-27T01:02:01.324Z,100.00
2024-02-27T01:05:14.256Z,100.00
2024-02-27T01:08:27.121Z,100.00
2024-02-27T01:11:39.517Z,100.00
2024-02-27T01:14:52.180Z,100.00
2024-02-27T01:18:04.895Z,100.00
2024-02-27T01:21:18.646Z,100.00
2024-02-27T01:24:31.351Z,100.00
2024-02-27T01:27:44.367Z,100.00
2024-02-27T01:30:56.868Z,100.00
2024-02-27T01:34:09.740Z,100.00
2024-02-27T01:37:22.372Z,100.00
2024-02-27T01:40:35.102Z,100.00
2024-02-27T01:43:47.501Z,100.00
2024-02-27T01:47:01.254Z,100.00
2024-02-27T01:50:16.145Z,100.00
2024-02-27T01:53:29.002Z,100.00
2024-02-27T01:56:41.449Z,100.00
2024-02-27T01:59:54.138Z,100.00
2024-02-27T02:03:08.248Z,100.00
2024-02-27T02:06:21.205Z,100.00
2024-02-27T02:09:33.841Z,100.00
2024-02-27T02:12:46.639Z,100.00
2024-02-27T02:15:59.363Z,100.00
2024-02-27T02:19:12.140Z,100.00
2024-02-27T02:22:24.606Z,100.00
2024-02-27T02:25:37.980Z,100.00
2024-02-27T02:28:50.337Z,100.00
2024-02-27T02:32:04.444Z,100.00
2024-02-27T02:35:17.028Z,100.00
2024-02-27T02:38:29.734Z,100.00
2024-02-27T02:41:42.122Z,100.00
2024-02-27T02:44:54.796Z,100.00
2024-02-27T02:48:07.887Z,100.00
2024-02-27T02:51:20.842Z,100.00
2024-02-27T02:54:33.368Z,100.00
2024-02-27T02:57:46.156Z,100.00
2024-02-27T03:00:58.567Z,100.00
2024-02-27T03:04:11.282Z,100.00
2024-02-27T03:07:23.705Z,100.00
2024-02-27T03:10:36.490Z,100.00
2024-02-27T03:13:48.838Z,100.00
2024-02-27T03:17:01.578Z,100.00
2024-02-27T03:20:14.102Z,100.00
2024-02-27T03:23:26.849Z,100.00
2024-02-27T03:26:39.213Z,100.00
2024-02-27T03:29:51.862Z,100.00
2024-02-27T03:33:04.560Z,100.00
2024-02-27T03:36:17.406Z,100.00
2024-02-27T03:39:30.322Z,100.00
2024-02-27T03:42:43.088Z,100.00
2024-02-27T03:45:55.523Z,100.00
2024-02-27T03:49:08.205Z,100.00
2024-02-27T03:52:20.568Z,100.00
2024-02-27T03:55:33.216Z,100.00
2024-02-27T03:58:47.349Z,100.00
2024-02-27T04:01:59.998Z,100.00
2024-02-27T04:05:12.753Z,100.00
2024-02-27T04:08:25.185Z,100.00
2024-02-27T04:11:37.841Z,100.00
2024-02-27T04:14:50.228Z,100.00
2024-02-27T04:18:03.328Z,100.00
2024-02-27T04:21:15.807Z,100.00
2024-02-27T04:24:28.505Z,100.00
2024-02-27T04:27:41.164Z,100.00
2024-02-27T04:30:53.909Z,100.00
2024-02-27T04:34:06.352Z,100.00
2024-02-27T04:37:19.048Z,100.00
2024-02-27T04:40:31.479Z,100.00
2024-02-27T04:43:44.143Z,100.00
2024-02-27T04:46:56.528Z,100.00
2024-02-27T04:50:09.609Z,100.00
2024-02-27T04:53:21.952Z,100.00
2024-02-27T04:56:34.609Z,100.00
2024-02-27T04:59:47.008Z,100.00
2024-02-27T05:02:59.698Z,100.00
2024-02-27T05:06:12.162Z,100.00
2024-02-27T05:09:25.087Z,100.00
2024-02-27T05:12:37.577Z,100.00
2024-02-27T05:15:51.411Z,100.00
2024-02-27T05:19:03.895Z,100.00
2024-02-27T05:22:16.635Z,100.00
2024-02-27T05:25:29.041Z,100.00
2024-02-27T05:28:41.925Z,100.00
2024-02-27T05:31:54.314Z,100.00
2024-02-27T05:35:07.418Z,100.00
2024-02-27T05:38:19.823Z,100.00
2024-02-27T05:41:32.524Z,100.00
2024-02-27T05:44:44.961Z,100.00
2024-02-27T05:47:57.777Z,100.00
2024-02-27T05:51:10.461Z,100.00
2024-02-27T05:54:23.198Z,100.00
2024-02-27T05:57:35.645Z,100.00
2024-02-27T06:00:48.434Z,100.00
2024-02-27T06:04:01.295Z,100.00
2024-02-27T06:07:13.860Z,100.00
2024-02-27T06:10:26.617Z,100.00
2024-02-27T06:13:39.039Z,100.00
2024-02-27T06:16:52.313Z,100.00
2024-02-27T06:20:13.330Z,100.00
2024-02-27T06:23:32.618Z,100.00
2024-02-27T06:26:45.216Z,100.00
2024-02-27T06:29:57.943Z,100.00
2024-02-27T06:33:10.504Z,100.00
2024-02-27T06:36:24.747Z,100.00
2024-02-27T06:39:39.378Z,100.00
2024-02-27T06:42:52.160Z,100.00
2024-02-27T06:46:07.233Z,100.00
2024-02-27T06:49:23.097Z,100.00
2024-02-27T06:52:36.747Z,100.00
2024-02-27T06:55:49.510Z,100.00
2024-02-27T06:59:01.944Z,100.00
2024-02-27T07:02:14.985Z,100.00
2024-02-27T07:05:32.443Z,100.00
2024-02-27T07:08:53.281Z,100.00
2024-02-27T07:12:06.084Z,100.00
2024-02-27T07:15:19.547Z,100.00
2024-02-27T07:18:32.197Z,100.00
2024-02-27T07:21:44.971Z,100.00
2024-02-27T07:24:57.443Z,100.00
2024-02-27T07:28:16.951Z,100.00
2024-02-27T07:31:33.069Z,100.00
2024-02-27T07:34:47.971Z,100.00
2024-02-27T07:38:01.634Z,100.00
2024-02-27T07:41:14.616Z,100.00
2024-02-27T07:44:26.979Z,100.00
2024-02-27T07:47:41.754Z,100.00
2024-02-27T07:50:56.945Z,100.00
2024-02-27T07:54:09.688Z,100.00
2024-02-27T07:57:25.954Z,100.00
2024-02-27T08:00:38.894Z,100.00
2024-02-27T08:03:53.094Z,100.00
2024-02-27T08:07:05.794Z,100.00
2024-02-27T08:10:18.677Z,100.00
2024-02-27T08:13:32.143Z,100.00
2024-02-27T08:16:45.121Z,100.00
2024-02-27T08:19:57.946Z,100.00
2024-02-27T08:23:11.212Z,100.00
2024-02-27T08:26:23.647Z,100.00
2024-02-27T08:29:36.622Z,100.00
2024-02-27T08:32:50.775Z,100.00
2024-02-27T08:36:04.747Z,100.00
2024-02-27T08:39:17.196Z,100.00
2024-02-27T08:42:29.993Z,100.00
2024-02-27T08:45:43.344Z,100.00
2024-02-27T08:48:58.469Z,100.00
2024-02-27T08:52:10.946Z,100.00
2024-02-27T08:55:26.388Z,100.00
2024-02-27T08:58:38.853Z,100.00
2024-02-27T09:01:51.614Z,100.00
2024-02-27T09:05:04.910Z,100.00
2024-02-27T09:08:18.108Z,100.00
2024-02-27T09:11:31.256Z,100.00
2024-02-27T09:14:44.069Z,100.00
2024-02-27T09:17:56.574Z,100.00
2024-02-27T09:21:13.360Z,100.00
2024-02-27T09:24:25.827Z,100.00
2024-02-27T09:27:39.996Z,100.00
2024-02-27T09:30:52.431Z,100.00
2024-02-27T09:34:08.474Z,100.00
2024-02-27T09:37:24.571Z,100.00
2024-02-27T09:40:42.758Z,100.00
2024-02-27T09:43:58.966Z,100.00
2024-02-27T09:47:12.576Z,100.00
2024-02-27T09:50:25.167Z,100.00
2024-02-27T09:53:38.196Z,100.00
2024-02-27T09:56:51.248Z,100.00
2024-02-27T10:00:04.722Z,100.00
2024-02-27T10:03:24.583Z,100.00
2024-02-27T10:06:37.354Z,100.00
2024-02-27T10:09:49.814Z,100.00
2024-02-27T10:13:02.634Z,100.00
2024-02-27T10:16:15.155Z,100.00
2024-02-27T10:19:35.392Z,100.00
2024-02-27T10:23:00.067Z,100.00
2024-02-27T10:26:13.788Z,100.00
2024-02-27T10:29:35.593Z,100.00
2024-02-27T10:32:48.584Z,97.70
2024-02-27T10:36:02.001Z,97.30
2024-02-27T10:39:16.043Z,95.97
2024-02-27T10:42:29.556Z,93.02
2024-02-27T10:45:42.385Z,95.55
2024-02-27T10:48:54.989Z,93.59
2024-02-27T10:52:07.882Z,97.17
2024-02-27T10:55:23.470Z,92.72
2024-02-27T10:58:36.477Z,91.18
2024-02-27T11:01:49.412Z,90.05
2024-02-27T11:05:02.381Z,88.61
2024-02-27T11:08:14.847Z,87.38
2024-02-27T11:11:27.637Z,86.11
2024-02-27T11:14:44.772Z,84.78
2024-02-27T11:18:01.720Z,85.06
2024-02-27T11:21:25.020Z,83.17
2024-02-27T11:24:37.854Z,82.91
2024-02-27T11:27:51.169Z,80.93
2024-02-27T11:31:04.031Z,79.81
2024-02-27T11:34:28.094Z,78.43
2024-02-27T11:37:46.822Z,76.62
2024-02-27T11:40:59.966Z,73.40
2024-02-27T11:44:13.625Z,71.69
2024-02-27T11:47:48.069Z,71.01
2024-02-27T11:51:01.132Z,70.05
2024-02-27T11:54:14.812Z,72.75
2024-02-27T11:57:30.618Z,74.06
2024-02-27T12:00:55.301Z,72.82
2024-02-27T12:04:13.446Z,70.76
2024-02-27T12:07:30.534Z,71.19
2024-02-27T12:10:43.677Z,68.94
2024-02-27T12:13:58.952Z,70.88
2024-02-27T12:17:11.649Z,71.67
2024-02-27T12:20:24.099Z,70.85
2024-02-27T12:23:37.365Z,67.95
2024-02-27T12:26:58.219Z,68.82
2024-02-27T12:30:16.471Z,67.70
2024-02-27T12:33:29.262Z,65.03
2024-02-27T12:36:43.817Z,65.93
2024-02-27T12:39:56.556Z,65.16
2024-02-27T12:43:09.298Z,65.25
2024-02-27T12:46:25.106Z,64.40
2024-02-27T12:49:39.737Z,64.09
2024-02-27T12:53:06.135Z,63.28
2024-02-27T12:56:24.200Z,63.27
2024-02-27T12:59:39.907Z,61.95
2024-02-27T13:02:57.129Z,63.08
2024-02-27T13:06:11.889Z,61.59
2024-02-27T13:09:26.232Z,63.75
2024-02-27T13:12:38.712Z,63.80
2024-02-27T13:15:51.672Z,62.67
2024-02-27T13:19:04.414Z,61.96
2024-02-27T13:22:17.222Z,63.38
2024-02-27T13:25:29.746Z,63.23
2024-02-27T13:28:42.448Z,64.30
2024-02-27T13:31:54.864Z,64.36
2024-02-27T13:35:07.828Z,64.33
2024-02-27T13:38:20.312Z,62.75
2024-02-27T13:41:34.485Z,63.97
2024-02-27T13:44:46.932Z,63.17
2024-02-27T13:47:59.681Z,63.08
2024-02-27T13:51:12.158Z,63.85
2024-02-27T13:54:25.415Z,61.79
2024-02-27T13:57:38.033Z,61.43
2024-02-27T14:00:51.172Z,62.03
2024-02-27T14:04:04.119Z,61.60
2024-02-27T14:07:16.816Z,61.49
2024-02-27T14:10:29.662Z,63.88
2024-02-27T14:13:42.087Z,62.34
2024-02-27T14:16:54.769Z,62.64
2024-02-27T14:20:07.495Z,62.22
2024-02-27T14:23:20.268Z,61.88
2024-02-27T14:26:35.872Z,61.76
2024-02-27T14:29:49.381Z,63.94
2024-02-27T14:33:02.246Z,65.92
2024-02-27T14:36:15.104Z,66.96
2024-02-27T14:39:27.699Z,66.46
2024-02-27T14:42:40.535Z,67.26
2024-02-27T14:45:54.240Z,67.99
2024-02-27T14:49:07.091Z,67.90
2024-02-27T14:52:19.507Z,68.80
2024-02-27T14:55:32.168Z,69.67
2024-02-27T14:58:44.556Z,68.59
2024-02-27T15:02:03.321Z,69.64
2024-02-27T15:05:17.838Z,69.44
2024-02-27T15:08:30.773Z,70.33
2024-02-27T15:11:43.282Z,69.47
2024-02-27T15:14:55.991Z,69.61
2024-02-27T15:18:08.624Z,70.42
2024-02-27T15:21:21.482Z,71.38
2024-02-27T15:24:34.069Z,71.92
2024-02-27T15:27:46.816Z,71.45
2024-02-27T15:30:59.292Z,71.60
2024-02-27T15:34:12.142Z,71.51
2024-02-27T15:37:24.552Z,71.86
2024-02-27T15:40:37.254Z,72.21
2024-02-27T15:43:49.638Z,72.18
2024-02-27T15:47:02.457Z,73.92
2024-02-27T15:50:14.852Z,74.60
2024-02-27T15:53:27.694Z,74.28
2024-02-27T15:56:40.081Z,74.01
2024-02-27T15:59:52.745Z,75.36
2024-02-27T16:03:32.281Z,76.37
2024-02-27T16:07:15.600Z,76.85
2024-02-27T16:10:28.096Z,76.13
2024-02-27T16:13:40.994Z,76.03
2024-02-27T16:16:53.426Z,74.79
2024-02-27T16:20:08.925Z,74.16
2024-02-27T16:23:26.328Z,74.28
2024-02-27T16:26:39.365Z,75.60
2024-02-27T16:29:51.789Z,76.53
2024-02-27T16:33:04.891Z,77.37
2024-02-27T16:36:17.485Z,78.68
2024-02-27T16:39:30.892Z,80.64
2024-02-27T16:42:43.373Z,80.43
2024-02-27T16:45:56.135Z,80.13
2024-02-27T16:49:08.601Z,82.36
2024-02-27T16:52:22.378Z,81.02
2024-02-27T16:55:37.310Z,81.28
2024-02-27T16:58:50.075Z,81.22
2024-02-27T17:02:02.769Z,82.54
2024-02-27T17:05:15.516Z,83.52
2024-02-27T17:08:27.892Z,83.55
2024-02-27T17:11:40.637Z,83.89
2024-02-27T17:14:53.196Z,84.93
2024-02-27T17:18:06.003Z,87.42
2024-02-27T17:21:18.436Z,88.15
2024-02-27T17:24:31.099Z,91.86
2024-02-27T17:27:43.560Z,90.80
2024-02-27T17:30:56.387Z,92.90
2024-02-27T17:34:09.265Z,93.79
2024-02-27T17:37:22.104Z,94.14
2024-02-27T17:40:34.529Z,94.85
2024-02-27T17:43:47.211Z,94.49
2024-02-27T17:46:59.747Z,96.59
2024-02-27T17:50:12.442Z,99.38
2024-02-27T17:53:24.875Z,99.93
2024-02-27T17:56:37.550Z,100.00
2024-02-27T17:59:50.054Z,100.00
2024-02-27T18:03:03.193Z,100.00
2024-02-27T18:06:15.992Z,100.00
2024-02-27T18:09:28.505Z,100.00
2024-02-27T18:12:41.220Z,100.00
2024-02-27T18:15:53.949Z,100.00
2024-02-27T18:19:06.815Z,100.00
2024-02-27T18:22:19.290Z,100.00
2024-02-27T18:25:33.558Z,100.00
2024-02-27T18:28:46.033Z,100.00
2024-02-27T18:31:58.688Z,100.00
2024-02-27T18:35:13.708Z,100.00
2024-02-27T18:38:28.131Z,100.00
2024-02-27T18:41:40.489Z,100.00
2024-02-27T18:44:53.163Z,100.00
2024-02-27T18:48:09.340Z,100.00
2024-02-27T18:51:22.130Z,100.00
2024-02-27T18:54:34.562Z,99.70
2024-02-27T18:57:47.574Z,99.15
2024-02-27T19:01:00.151Z,98.38
2024-02-27T19:04:12.934Z,98.58
2024-02-27T19:07:25.537Z,98.54
2024-02-27T19:10:38.809Z,97.87
2024-02-27T19:13:51.532Z,97.78
2024-02-27T19:17:05.368Z,97.51
2024-02-27T19:20:17.778Z,96.95
2024-02-27T19:23:30.455Z,96.97
2024-02-27T19:26:42.830Z,97.05
2024-02-27T19:29:57.396Z,97.20
2024-02-27T19:33:09.922Z,96.18
2024-02-27T19:36:23.026Z,96.70
2024-02-27T19:39:36.758Z,96.36
2024-02-27T19:42:49.510Z,96.46
2024-02-27T19:46:01.933Z,96.43
2024-02-27T19:49:14.869Z,96.45
2024-02-27T19:52:28.169Z,97.05
2024-02-27T19:55:40.863Z,98.23
2024-02-27T19:58:53.475Z,97.63
2024-02-27T20:02:06.417Z,97.70
2024-02-27T20:05:19.096Z,98.16
2024-02-27T20:08:32.104Z,97.53
2024-02-27T20:11:45.689Z,99.83
2024-02-27T20:14:58.139Z,100.00
2024-02-27T20:18:11.196Z,100.00
2024-02-27T20:21:24.079Z,100.00
2024-02-27T20:24:40.909Z,100.00
2024-02-27T20:27:53.340Z,100.00
2024-02-27T20:31:06.098Z,100.00
2024-02-27T20:34:18.521Z,100.00
2024-02-27T20:37:31.191Z,100.00
2024-02-27T20:40:44.310Z,100.00
2024-02-27T20:43:56.946Z,100.00
2024-02-27T20:47:09.613Z,100.00
2024-02-27T20:50:22.350Z,100.00
2024-02-27T20:53:34.759Z,100.00
2024-02-27T20:56:47.411Z,100.00
2024-02-27T20:59:59.766Z,100.00
2024-02-27T21:03:12.486Z,100.00
2024-02-27T21:06:25.030Z,100.00
2024-02-27T21:09:37.763Z,100.00
2024-02-27T21:12:50.317Z,100.00
2024-02-27T21:16:05.234Z,99.52
2024-02-27T21:19:18.022Z,100.00
2024-02-27T21:22:30.662Z,100.00
2024-02-27T21:25:43.509Z,100.00
2024-02-27T21:28:56.314Z,100.00
2024-02-27T21:32:08.738Z,100.00
2024-02-27T21:35:21.381Z,100.00
2024-02-27T21:38:33.750Z,100.00
2024-02-27T21:41:46.449Z,100.00
2024-02-27T21:44:58.816Z,100.00
2024-02-27T21:48:11.646Z,100.00
2024-02-27T21:51:24.147Z,100.00
2024-02-27T21:54:37.056Z,100.00
2024-02-27T21:57:50.311Z,100.00
2024-02-27T22:01:03.223Z,100.00
2024-02-27T22:04:15.862Z,100.00
2024-02-27T22:07:28.251Z,100.00
2024-02-27T22:10:40.942Z,100.00
2024-02-27T22:13:53.386Z,100.00
2024-02-27T22:17:06.068Z,100.00
2024-02-27T22:20:18.533Z,100.00
2024-02-27T22:23:31.243Z,100.00
2024-02-27T22:26:43.681Z,100.00
2024-02-27T22:29:56.441Z,100.00
2024-02-27T22:33:11.467Z,100.00
2024-02-27T22:36:25.754Z,100.00
2024-02-27T22:39:38.268Z,100.00
2024-02-27T22:42:50.969Z,100.00
2024-02-27T22:46:07.010Z,100.00
2024-02-27T22:49:19.710Z,100.00
2024-02-27T22:52:32.379Z,100.00
2024-02-27T22:55:45.115Z,100.00
2024-02-27T22:58:57.493Z,100.00
2024-02-27T23:02:10.153Z,100.00
2024-02-27T23:05:23.034Z,100.00
2024-02-27T23:08:35.685Z,100.00
2024-02-27T23:11:48.134Z,100.00
2024-02-27T23:15:00.789Z,100.00
2024-02-27T23:18:14.129Z,100.00
2024-02-27T23:21:27.958Z,100.00
2024-02-27T23:24:40.388Z,100.00
2024-02-27T23:27:53.181Z,100.00
2024-02-27T23:31:05.689Z,100.00
2024-02-27T23:34:18.376Z,100.00
2024-02-27T23:37:30.747Z,100.00
2024-02-27T23:40:45.869Z,100.00
2024-02-27T23:43:58.279Z,100.00
2024-02-27T23:47:10.995Z,100.00
2024-02-27T23:50:23.498Z,100.00
2024-02-27T23:53:38.463Z,100.00
2024-02-27T23:56:50.893Z,100.00
